createdAt,value
2022-08-27T00:01:22.001Z,24.06
2022-08-27T00:03:48.862Z,23.92
2022-08-27T00:06:17.511Z,23.91
2022-08-27T00:08:46.943Z,23.72
2022-08-27T00:11:14.471Z,24.23
2022-08-27T00:13:41.387Z,23.81
2022-08-27T00:16:09.991Z,24.08
2022-08-27T00:18:37.537Z,24.31
2022-08-27T00:21:05.065Z,23.76
2022-08-27T00:23:34.482Z,24.31
2022-08-27T00:26:01.117Z,24.18
2022-08-27T00:28:28.278Z,23.89
2022-08-27T00:30:58.045Z,23.36
2022-08-27T00:33:25.456Z,23.61
2022-08-27T00:35:52.890Z,23.57
2022-08-27T00:38:21.046Z,23.17
2022-08-27T00:40:48.205Z,23.39
2022-08-27T00:43:21.963Z,23.36
2022-08-27T00:45:48.722Z,22.79
2022-08-27T00:48:18.295Z,22.80
2022-08-27T00:50:50.483Z,22.56
2022-08-27T00:53:23.452Z,23.26
2022-08-27T00:55:55.607Z,23.54
2022-08-27T00:58:28.170Z,23.34
2022-08-27T01:00:55.721Z,22.55
2022-08-27T01:03:22.514Z,22.85
2022-08-27T01:05:50.138Z,23.29
2022-08-27T01:08:22.649Z,23.37
2022-08-27T01:10:50.960Z,22.76
2022-08-27T01:13:20.897Z,22.67
2022-08-27T01:16:08.595Z,22.86
2022-08-27T01:18:37.579Z,23.33
2022-08-27T01:21:10.659Z,23.45
2022-08-27T01:23:43.188Z,23.05
2022-08-27T01:26:13.580Z,23.14
2022-08-27T01:28:40.434Z,23.09
2022-08-27T01:31:09.287Z,23.16
2022-08-27T01:33:36.067Z,23.71
2022-08-27T01:36:03.537Z,23.61
2022-08-27T01:38:31.563Z,22.77
2022-08-27T01:41:01.959Z,23.40
2022-08-27T01:43:31.131Z,23.49
2022-08-27T01:45:57.735Z,23.06
2022-08-27T01:48:24.296Z,22.27
2022-08-27T01:50:50.857Z,22.83
2022-08-27T01:53:22.745Z,22.95
2022-08-27T01:55:50.502Z,23.06
2022-08-27T01:58:18.630Z,23.06
2022-08-27T02:00:47.771Z,22.44
2022-08-27T02:03:19.110Z,22.71
2022-08-27T02:05:47.568Z,22.76
2022-08-27T02:08:17.861Z,23.13
2022-08-27T02:10:45.615Z,23.34
2022-08-27T02:13:13.350Z,23.12
2022-08-27T02:15:42.181Z,23.30
2022-08-27T02:18:10.178Z,23.08
2022-08-27T02:20:36.940Z,22.71
2022-08-27T02:23:04.763Z,23.02
2022-08-27T02:25:31.423Z,23.26
2022-08-27T02:28:00.199Z,22.82
2022-08-27T02:30:28.313Z,22.98
2022-08-27T02:32:54.826Z,22.57
2022-08-27T02:35:23.520Z,22.68
2022-08-27T02:37:50.453Z,22.66
2022-08-27T02:40:20.031Z,22.45
2022-08-27T02:42:47.090Z,22.72
2022-08-27T02:45:15.061Z,22.26
2022-08-27T02:47:41.951Z,22.55
2022-08-27T02:50:09.408Z,22.15
2022-08-27T02:52:36.578Z,22.09
2022-08-27T02:55:05.570Z,22.29
2022-08-27T02:57:36.487Z,22.47
2022-08-27T03:00:10.472Z,22.51
2022-08-27T03:02:37.189Z,22.26
2022-08-27T03:05:06.204Z,22.36
2022-08-27T03:07:32.765Z,22.34
2022-08-27T03:09:59.506Z,22.15
2022-08-27T03:12:26.723Z,22.24
2022-08-27T03:14:53.274Z,22.06
2022-08-27T03:17:38.429Z,22.07
2022-08-27T03:20:06.727Z,21.79
2022-08-27T03:22:33.245Z,22.08
2022-08-27T03:25:02.505Z,21.82
2022-08-27T03:27:29.521Z,21.21
2022-08-27T03:29:57.843Z,21.55
2022-08-27T03:32:27.589Z,21.66
2022-08-27T03:34:58.305Z,21.68
2022-08-27T03:37:25.384Z,21.48
2022-08-27T03:39:52.236Z,21.22
2022-08-27T03:42:18.881Z,21.26
2022-08-27T03:44:45.502Z,20.87
2022-08-27T03:47:12.057Z,20.87
2022-08-27T03:49:38.996Z,21.02
2022-08-27T03:52:05.701Z,21.15
2022-08-27T03:54:34.861Z,21.19
2022-08-27T03:57:01.993Z,21.20
2022-08-27T03:59:28.565Z,21.05
2022-08-27T04:01:55.206Z,21.14
2022-08-27T04:04:23.708Z,20.81
2022-08-27T04:06:50.688Z,21.05
2022-08-27T04:09:17.791Z,20.86
2022-08-27T04:11:44.959Z,20.88
2022-08-27T04:14:19.849Z,20.46
2022-08-27T04:16:54.987Z,20.95
2022-08-27T04:19:26.872Z,21.07
2022-08-27T04:21:54.061Z,21.08
2022-08-27T04:24:20.567Z,21.29
2022-08-27T04:26:47.630Z,21.03
2022-08-27T04:29:14.194Z,21.32
2022-08-27T04:31:40.825Z,21.55
2022-08-27T04:34:07.788Z,21.59
2022-08-27T04:36:34.625Z,21.44
2022-08-27T04:39:01.347Z,21.39
2022-08-27T04:41:28.210Z,21.36
2022-08-27T04:43:56.961Z,21.20
2022-08-27T04:46:32.367Z,21.32
2022-08-27T04:49:01.530Z,21.57
2022-08-27T04:51:29.044Z,21.10
2022-08-27T04:53:56.613Z,20.97
2022-08-27T04:56:26.483Z,21.58
2022-08-27T04:58:53.168Z,21.31
2022-08-27T05:01:23.562Z,21.42
2022-08-27T05:03:50.155Z,21.48
2022-08-27T05:06:17.458Z,20.96
2022-08-27T05:08:44.456Z,21.36
2022-08-27T05:11:15.000Z,21.57
2022-08-27T05:13:43.438Z,21.44
2022-08-27T05:16:16.244Z,21.44
2022-08-27T05:18:48.251Z,21.41
2022-08-27T05:21:32.420Z,21.24
2022-08-27T05:24:01.121Z,21.40
2022-08-27T05:26:28.925Z,21.21
2022-08-27T05:28:55.688Z,21.39
2022-08-27T05:31:22.637Z,21.37
2022-08-27T05:33:49.535Z,21.66
2022-08-27T05:36:20.511Z,21.62
2022-08-27T05:38:49.272Z,21.05
2022-08-27T05:41:19.280Z,21.19
2022-08-27T05:43:49.832Z,21.22
2022-08-27T05:46:20.223Z,21.47
2022-08-27T05:48:47.225Z,21.98
2022-08-27T05:51:22.557Z,22.04
2022-08-27T05:54:08.470Z,22.17
2022-08-27T05:56:37.048Z,22.22
2022-08-27T05:59:22.740Z,22.13
2022-08-27T06:01:51.690Z,22.30
2022-08-27T06:04:20.434Z,22.37
2022-08-27T06:06:47.896Z,22.11
2022-08-27T06:09:17.174Z,22.21
2022-08-27T06:11:44.410Z,22.49
2022-08-27T06:14:11.142Z,22.49
2022-08-27T06:16:38.569Z,22.54
2022-08-27T06:19:06.389Z,22.80
2022-08-27T06:21:33.783Z,22.75
2022-08-27T06:24:00.723Z,22.61
2022-08-27T06:26:27.409Z,22.72
2022-08-27T06:28:54.500Z,22.72
2022-08-27T06:31:25.550Z,22.61
2022-08-27T06:33:53.648Z,22.84
2022-08-27T06:36:25.584Z,22.55
2022-08-27T06:38:53.539Z,22.63
2022-08-27T06:41:24.147Z,23.17
2022-08-27T06:43:51.226Z,22.94
2022-08-27T06:46:20.090Z,23.25
2022-08-27T06:48:47.852Z,23.54
2022-08-27T06:51:18.531Z,23.50
2022-08-27T06:53:47.246Z,23.53
2022-08-27T06:56:17.539Z,22.68
2022-08-27T06:58:44.993Z,22.98
2022-08-27T07:01:40.092Z,22.94
2022-08-27T07:04:09.434Z,23.47
2022-08-27T07:06:37.175Z,23.45
2022-08-27T07:09:04.535Z,23.43
2022-08-27T07:11:33.995Z,23.52
2022-08-27T07:14:00.984Z,23.61
2022-08-27T07:16:29.078Z,24.29
2022-08-27T07:18:59.440Z,24.43
2022-08-27T07:21:31.813Z,24.81
2022-08-27T07:23:59.797Z,24.97
2022-08-27T07:26:26.599Z,25.23
2022-08-27T07:28:53.512Z,24.27
2022-08-27T07:31:22.363Z,24.69
2022-08-27T07:33:53.179Z,24.35
2022-08-27T07:36:21.359Z,25.23
2022-08-27T07:38:56.823Z,25.26
2022-08-27T07:41:32.161Z,25.60
2022-08-27T07:44:19.407Z,25.13
2022-08-27T07:46:48.674Z,25.68
2022-08-27T07:49:19.794Z,25.62
2022-08-27T07:51:46.657Z,26.00
2022-08-27T07:54:13.618Z,25.44
2022-08-27T07:56:40.312Z,25.17
2022-08-27T07:59:07.228Z,25.13
2022-08-27T08:01:34.343Z,25.41
2022-08-27T08:04:00.903Z,25.41
2022-08-27T08:06:27.459Z,25.27
2022-08-27T08:08:54.022Z,24.95
2022-08-27T08:11:20.913Z,25.11
2022-08-27T08:13:47.508Z,25.25
2022-08-27T08:16:15.000Z,24.72
2022-08-27T08:18:42.113Z,24.87
2022-08-27T08:21:13.561Z,25.06
2022-08-27T08:23:40.697Z,25.30
2022-08-27T08:26:08.267Z,25.52
2022-08-27T08:28:34.843Z,25.94
2022-08-27T08:31:01.648Z,26.24
2022-08-27T08:33:28.595Z,26.34
2022-08-27T08:35:55.375Z,26.29
2022-08-27T08:38:22.072Z,26.04
2022-08-27T08:40:53.235Z,26.10
2022-08-27T08:43:39.187Z,26.48
2022-08-27T08:46:09.862Z,26.66
2022-08-27T08:48:38.267Z,26.35
2022-08-27T08:51:10.390Z,26.17
2022-08-27T08:53:52.882Z,26.30
2022-08-27T08:56:31.704Z,26.33
2022-08-27T08:59:02.901Z,26.35
2022-08-27T09:01:29.824Z,25.73
2022-08-27T09:03:59.176Z,26.45
2022-08-27T09:06:45.272Z,26.08
2022-08-27T09:09:23.959Z,26.42
2022-08-27T09:12:28.834Z,26.64
2022-08-27T09:14:59.345Z,26.96
2022-08-27T09:17:27.715Z,27.03
2022-08-27T09:19:56.046Z,27.00
2022-08-27T09:22:37.938Z,26.27
2022-08-27T09:25:11.631Z,26.73
2022-08-27T09:27:41.602Z,26.69
2022-08-27T09:30:11.724Z,27.00
2022-08-27T09:32:39.183Z,27.24
2022-08-27T09:35:11.196Z,27.00
2022-08-27T09:37:46.039Z,26.59
2022-08-27T09:40:23.693Z,26.88
2022-08-27T09:42:53.290Z,26.97
2022-08-27T09:45:26.751Z,25.94
2022-08-27T09:48:05.649Z,26.77
2022-08-27T09:50:43.890Z,26.55
2022-08-27T09:53:30.928Z,27.17
2022-08-27T09:56:01.674Z,27.17
2022-08-27T09:58:31.204Z,27.18
2022-08-27T10:01:21.474Z,27.24
2022-08-27T10:03:48.646Z,27.22
2022-08-27T10:06:27.194Z,26.80
2022-08-27T10:08:54.750Z,27.03
2022-08-27T10:11:44.733Z,26.98
2022-08-27T10:14:21.553Z,27.13
2022-08-27T10:17:15.751Z,27.32
2022-08-27T10:20:00.744Z,26.79
2022-08-27T10:22:31.872Z,26.59
2022-08-27T10:25:43.546Z,26.76
2022-08-27T10:28:22.701Z,26.94
2022-08-27T10:31:19.410Z,26.56
2022-08-27T10:34:12.332Z,26.41
2022-08-27T10:37:04.437Z,26.55
2022-08-27T10:39:37.170Z,26.21
2022-08-27T10:42:14.703Z,26.67
2022-08-27T10:44:57.962Z,26.55
2022-08-27T10:47:46.255Z,26.57
2022-08-27T10:50:24.643Z,26.40
2022-08-27T10:53:17.261Z,25.81
2022-08-27T10:55:51.745Z,26.35
2022-08-27T10:58:51.949Z,26.82
2022-08-27T11:01:37.752Z,27.17
2022-08-27T11:04:10.060Z,27.49
2022-08-27T11:06:44.550Z,27.74
2022-08-27T11:09:14.985Z,28.27
2022-08-27T11:12:18.411Z,28.93
2022-08-27T11:15:00.591Z,29.22
2022-08-27T11:17:39.709Z,29.27
2022-08-27T11:20:11.573Z,29.44
2022-08-27T11:22:42.762Z,29.88
2022-08-27T11:25:17.840Z,29.82
2022-08-27T11:27:45.651Z,29.39
2022-08-27T11:30:44.512Z,29.01
2022-08-27T11:33:26.582Z,28.55
2022-08-27T11:36:14.407Z,27.68
2022-08-27T11:38:44.183Z,27.52
2022-08-27T11:41:31.454Z,27.35
2022-08-27T11:44:14.110Z,27.23
2022-08-27T11:47:07.059Z,27.02
2022-08-27T11:49:57.559Z,26.70
2022-08-27T11:52:38.830Z,26.38
2022-08-27T11:55:24.851Z,26.53
2022-08-27T11:58:10.656Z,26.12
2022-08-27T12:00:42.190Z,26.25
2022-08-27T12:03:10.037Z,26.63
2022-08-27T12:05:41.265Z,26.91
2022-08-27T12:08:14.543Z,26.95
2022-08-27T12:10:58.434Z,27.37
2022-08-27T12:13:38.117Z,27.13
2022-08-27T12:16:16.345Z,27.75
2022-08-27T12:18:49.670Z,28.00
2022-08-27T12:21:19.495Z,28.49
2022-08-27T12:23:57.939Z,28.78
2022-08-27T12:26:34.404Z,29.00
2022-08-27T12:29:24.042Z,29.54
2022-08-27T12:32:00.711Z,29.65
2022-08-27T12:34:28.050Z,30.28
2022-08-27T12:36:56.229Z,29.97
2022-08-27T12:39:28.168Z,30.30
2022-08-27T12:41:55.752Z,30.30
2022-08-27T12:44:30.561Z,30.26
2022-08-27T12:47:10.488Z,30.29
2022-08-27T12:49:57.928Z,29.37
2022-08-27T12:52:47.734Z,28.70
2022-08-27T12:55:54.731Z,27.65
2022-08-27T12:58:34.079Z,27.57
2022-08-27T13:01:21.223Z,27.83
2022-08-27T13:03:50.146Z,27.69
2022-08-27T13:06:35.305Z,28.17
2022-08-27T13:09:05.910Z,28.30
2022-08-27T13:11:35.893Z,27.74
2022-08-27T13:14:12.135Z,27.97
2022-08-27T13:16:45.093Z,28.01
2022-08-27T13:19:20.065Z,28.46
2022-08-27T13:21:49.535Z,28.77
2022-08-27T13:24:20.936Z,28.69
2022-08-27T13:26:50.171Z,29.58
2022-08-27T13:29:16.885Z,29.73
2022-08-27T13:31:44.166Z,29.73
2022-08-27T13:34:19.093Z,30.23
2022-08-27T13:37:06.670Z,30.15
2022-08-27T13:39:36.037Z,30.78
2022-08-27T13:42:04.611Z,30.61
2022-08-27T13:44:34.552Z,31.11
2022-08-27T13:47:09.084Z,30.73
2022-08-27T13:49:40.260Z,30.16
2022-08-27T13:52:15.187Z,30.07
2022-08-27T13:54:47.033Z,30.20
2022-08-27T13:57:30.250Z,30.09
2022-08-27T14:00:18.552Z,30.35
2022-08-27T14:02:55.680Z,29.87
2022-08-27T14:05:25.529Z,29.54
2022-08-27T14:07:55.618Z,29.49
2022-08-27T14:10:33.201Z,29.36
2022-08-27T14:13:22.000Z,29.50
2022-08-27T14:15:51.361Z,29.78
2022-08-27T14:18:36.768Z,28.80
2022-08-27T14:21:09.294Z,29.70
2022-08-27T14:23:35.870Z,29.98
2022-08-27T14:26:02.810Z,30.06
2022-08-27T14:28:31.567Z,30.47
2022-08-27T14:30:58.449Z,30.54
2022-08-27T14:33:25.208Z,30.47
2022-08-27T14:35:51.777Z,30.19
2022-08-27T14:38:22.587Z,30.38
2022-08-27T14:40:51.934Z,29.73
2022-08-27T14:43:19.293Z,30.29
2022-08-27T14:45:46.855Z,29.83
2022-08-27T14:48:19.700Z,29.99
2022-08-27T14:50:47.090Z,30.36
2022-08-27T14:53:13.603Z,30.21
2022-08-27T14:55:40.181Z,30.23
2022-08-27T14:58:06.678Z,30.27
2022-08-27T15:00:33.305Z,30.53
2022-08-27T15:02:59.806Z,30.44
2022-08-27T15:05:26.567Z,29.89
2022-08-27T15:07:54.924Z,29.78
2022-08-27T15:10:21.490Z,29.80
2022-08-27T15:12:48.055Z,29.83
2022-08-27T15:15:14.991Z,29.42
2022-08-27T15:17:41.622Z,29.67
2022-08-27T15:20:16.967Z,29.18
2022-08-27T15:22:47.450Z,28.66
2022-08-27T15:25:15.577Z,29.21
2022-08-27T15:27:42.119Z,28.73
2022-08-27T15:30:12.276Z,28.35
2022-08-27T15:32:45.890Z,28.59
2022-08-27T15:35:15.750Z,28.64
2022-08-27T15:37:43.078Z,28.57
2022-08-27T15:40:11.268Z,28.46
2022-08-27T15:42:39.117Z,28.60
2022-08-27T15:45:06.911Z,28.55
2022-08-27T15:47:34.093Z,27.85
2022-08-27T15:50:00.642Z,28.11
2022-08-27T15:52:36.057Z,28.12
2022-08-27T15:55:14.567Z,28.48
2022-08-27T15:57:41.085Z,28.50
2022-08-27T16:00:08.764Z,28.61
2022-08-27T16:02:35.424Z,28.61
2022-08-27T16:05:02.064Z,28.42
2022-08-27T16:07:28.591Z,28.15
2022-08-27T16:09:55.506Z,27.94
2022-08-27T16:12:26.963Z,27.76
2022-08-27T16:14:54.916Z,27.58
2022-08-27T16:17:21.588Z,27.80
2022-08-27T16:19:48.185Z,27.85
2022-08-27T16:22:16.110Z,27.78
2022-08-27T16:24:42.720Z,27.69
2022-08-27T16:27:09.561Z,28.01
2022-08-27T16:29:36.629Z,27.67
2022-08-27T16:32:03.812Z,27.39
2022-08-27T16:34:31.056Z,27.65
2022-08-27T16:36:57.673Z,27.93
2022-08-27T16:39:24.182Z,27.68
2022-08-27T16:41:50.788Z,26.88
2022-08-27T16:44:17.979Z,27.28
2022-08-27T16:46:44.793Z,26.98
2022-08-27T16:49:30.530Z,27.28
2022-08-27T16:51:57.107Z,27.05
2022-08-27T16:54:23.721Z,27.10
2022-08-27T16:56:50.303Z,26.82
2022-08-27T16:59:16.867Z,26.35
2022-08-27T17:01:45.667Z,26.60
2022-08-27T17:04:19.352Z,26.62
2022-08-27T17:06:54.796Z,27.00
2022-08-27T17:09:22.669Z,26.90
2022-08-27T17:11:54.489Z,26.56
2022-08-27T17:14:21.167Z,26.80
2022-08-27T17:16:47.734Z,26.79
2022-08-27T17:19:17.011Z,26.53
2022-08-27T17:21:45.405Z,26.76
2022-08-27T17:24:13.118Z,26.62
2022-08-27T17:26:40.124Z,26.66
2022-08-27T17:29:06.736Z,26.64
2022-08-27T17:31:36.050Z,26.74
2022-08-27T17:34:04.590Z,26.33
2022-08-27T17:36:31.688Z,26.55
2022-08-27T17:38:59.956Z,26.41
2022-08-27T17:41:33.649Z,26.69
2022-08-27T17:44:03.987Z,26.70
2022-08-27T17:46:30.973Z,26.50
2022-08-27T17:48:57.951Z,26.38
2022-08-27T17:51:24.573Z,26.64
2022-08-27T17:53:58.468Z,26.49
2022-08-27T17:56:27.347Z,26.59
2022-08-27T17:58:54.469Z,26.54
2022-08-27T18:01:31.816Z,26.67
2022-08-27T18:03:59.246Z,26.69
2022-08-27T18:06:27.365Z,26.50
2022-08-27T18:08:54.184Z,26.66
2022-08-27T18:11:20.917Z,26.72
2022-08-27T18:13:52.295Z,26.57
2022-08-27T18:16:19.138Z,26.54
2022-08-27T18:18:45.910Z,26.61
2022-08-27T18:21:12.779Z,26.52
2022-08-27T18:23:40.083Z,26.61
2022-08-27T18:26:09.043Z,26.58
2022-08-27T18:28:35.613Z,26.57
2022-08-27T18:31:06.591Z,26.57
2022-08-27T18:33:33.643Z,26.40
2022-08-27T18:36:00.699Z,26.52
2022-08-27T18:38:27.783Z,26.40
2022-08-27T18:40:55.305Z,26.34
2022-08-27T18:43:25.576Z,26.29
2022-08-27T18:45:52.191Z,26.16
2022-08-27T18:48:22.122Z,25.95
2022-08-27T18:50:55.542Z,26.17
2022-08-27T18:53:22.142Z,26.30
2022-08-27T18:55:49.316Z,26.30
2022-08-27T18:58:16.563Z,26.04
2022-08-27T19:00:46.170Z,26.34
2022-08-27T19:03:18.042Z,26.30
2022-08-27T19:05:44.608Z,26.15
2022-08-27T19:08:13.363Z,26.11
2022-08-27T19:10:40.011Z,26.12
2022-08-27T19:13:06.651Z,26.37
2022-08-27T19:15:33.395Z,26.30
2022-08-27T19:18:03.069Z,26.32
2022-08-27T19:20:31.169Z,26.31
2022-08-27T19:22:59.308Z,26.39
2022-08-27T19:25:27.105Z,26.28
2022-08-27T19:27:53.730Z,26.23
2022-08-27T19:30:20.710Z,26.21
2022-08-27T19:32:47.563Z,26.19
2022-08-27T19:35:21.479Z,25.90
2022-08-27T19:37:52.718Z,25.55
2022-08-27T19:40:21.922Z,25.65
2022-08-27T19:42:48.797Z,25.69
2022-08-27T19:45:15.638Z,25.88
2022-08-27T19:47:50.461Z,25.94
2022-08-27T19:50:17.829Z,25.96
2022-08-27T19:52:44.545Z,25.94
2022-08-27T19:55:14.063Z,25.67
2022-08-27T19:57:41.744Z,25.91
2022-08-27T20:00:09.583Z,25.97
2022-08-27T20:02:36.680Z,25.79
2022-08-27T20:05:19.799Z,25.91
2022-08-27T20:07:48.644Z,25.95
2022-08-27T20:10:16.452Z,25.93
2022-08-27T20:12:43.512Z,25.81
2022-08-27T20:15:10.756Z,25.71
2022-08-27T20:17:37.358Z,25.76
2022-08-27T20:20:05.710Z,25.66
2022-08-27T20:22:32.287Z,25.51
2022-08-27T20:24:58.867Z,25.77
2022-08-27T20:27:25.409Z,25.84
2022-08-27T20:29:52.486Z,25.60
2022-08-27T20:32:20.321Z,25.49
2022-08-27T20:34:46.886Z,25.74
2022-08-27T20:37:13.542Z,25.71
2022-08-27T20:39:40.293Z,25.60
2022-08-27T20:42:06.911Z,25.67
2022-08-27T20:44:33.563Z,25.62
2022-08-27T20:47:01.137Z,25.74
2022-08-27T20:49:28.759Z,25.76
2022-08-27T20:52:03.065Z,25.70
2022-08-27T20:54:31.551Z,25.76
2022-08-27T20:56:58.378Z,25.70
2022-08-27T20:59:43.582Z,25.70
2022-08-27T21:02:12.279Z,25.25
2022-08-27T21:04:40.885Z,25.59
2022-08-27T21:07:07.446Z,25.15
2022-08-27T21:09:34.333Z,25.10
2022-08-27T21:12:01.541Z,25.26
2022-08-27T21:14:28.246Z,24.72
2022-08-27T21:16:56.967Z,24.75
2022-08-27T21:19:25.386Z,24.75
2022-08-27T21:21:52.510Z,24.58
2022-08-27T21:24:19.641Z,24.40
2022-08-27T21:26:47.194Z,23.87
2022-08-27T21:29:15.411Z,24.00
2022-08-27T21:31:42.179Z,24.13
2022-08-27T21:34:09.285Z,24.03
2022-08-27T21:36:38.920Z,23.85
2022-08-27T21:39:07.046Z,24.19
2022-08-27T21:41:37.274Z,24.09
2022-08-27T21:44:04.930Z,23.99
2022-08-27T21:46:33.237Z,23.93
2022-08-27T21:49:00.162Z,24.24
2022-08-27T21:51:26.946Z,24.07
2022-08-27T21:53:53.551Z,24.16
2022-08-27T21:56:20.152Z,24.01
2022-08-27T21:58:47.354Z,24.28
2022-08-27T22:01:14.045Z,24.35
2022-08-27T22:03:45.238Z,23.95
2022-08-27T22:06:14.892Z,23.80
2022-08-27T22:08:43.583Z,23.90
2022-08-27T22:11:10.991Z,24.16
2022-08-27T22:13:38.065Z,24.16
2022-08-27T22:16:05.088Z,23.94
2022-08-27T22:18:31.898Z,23.83
2022-08-27T22:20:59.081Z,23.88
2022-08-27T22:23:26.833Z,23.62
2022-08-27T22:25:53.430Z,23.64
2022-08-27T22:28:19.983Z,23.77
2022-08-27T22:30:47.043Z,23.71
2022-08-27T22:33:14.024Z,23.59
2022-08-27T22:35:40.778Z,23.25
2022-08-27T22:38:08.116Z,23.12
2022-08-27T22:40:35.892Z,23.53
2022-08-27T22:43:04.137Z,23.82
2022-08-27T22:45:30.863Z,23.90
2022-08-27T22:47:58.140Z,23.72
2022-08-27T22:50:24.754Z,23.69
2022-08-27T22:52:51.707Z,23.86
2022-08-27T22:55:21.523Z,23.64
2022-08-27T22:57:52.973Z,23.05
2022-08-27T23:00:26.363Z,23.36
2022-08-27T23:02:53.189Z,23.53
2022-08-27T23:05:20.398Z,23.86
2022-08-27T23:07:47.230Z,23.76
2022-08-27T23:10:19.425Z,23.36
2022-08-27T23:12:47.083Z,23.89
2022-08-27T23:15:16.430Z,23.90
2022-08-27T23:17:43.138Z,23.96
2022-08-27T23:20:10.572Z,24.07
2022-08-27T23:22:48.550Z,23.55
2022-08-27T23:25:36.111Z,23.79
2022-08-27T23:28:06.281Z,23.37
2022-08-27T23:30:33.843Z,23.55
2022-08-27T23:33:00.433Z,23.21
2022-08-27T23:35:27.441Z,23.25
2022-08-27T23:37:54.103Z,23.52
2022-08-27T23:40:21.307Z,23.39
2022-08-27T23:42:49.448Z,23.43
2022-08-27T23:45:20.854Z,23.49
2022-08-27T23:47:47.551Z,22.72
2022-08-27T23:50:14.772Z,23.15
2022-08-27T23:52:42.033Z,22.83
2022-08-27T23:55:09.585Z,23.09
2022-08-27T23:57:36.913Z,22.77
